createdAt,value
2019-05-10T00:00:19.217Z,100098.84
2019-05-10T00:03:08.423Z,100102.42
2019-05-10T00:05:57.875Z,100094.39
2019-05-10T00:08:47.083Z,100102.30
2019-05-10T00:11:39.369Z,100110.98
2019-05-10T00:14:13.779Z,100108.39
2019-05-10T00:16:45.235Z,100114.38
2019-05-10T00:19:17.237Z,100112.56
2019-05-10T00:21:48.569Z,100109.86
2019-05-10T00:24:20.996Z,100110.83
2019-05-10T00:26:52.380Z,100102.34
2019-05-10T00:29:23.700Z,100099.14
2019-05-10T00:31:55.397Z,100095.42
2019-05-10T00:34:26.856Z,100099.93
2019-05-10T00:36:58.295Z,100105.27
2019-05-10T00:39:29.752Z,100098.77
2019-05-10T00:42:01.309Z,100095.13
2019-05-10T00:44:32.763Z,100092.14
2019-05-10T00:47:04.429Z,100090.66
2019-05-10T00:49:37.103Z,100099.13
2019-05-10T00:52:08.549Z,100096.35
2019-05-10T00:54:40.218Z,100096.58
2019-05-10T00:57:11.682Z,100080.78
2019-05-10T00:59:42.793Z,100085.38
2019-05-10T01:02:14.379Z,100085.39
2019-05-10T01:04:45.843Z,100095.55
2019-05-10T01:07:17.171Z,100083.88
2019-05-10T01:09:48.751Z,100082.60
2019-05-10T01:12:21.329Z,100074.66
2019-05-10T01:14:52.795Z,100070.34
2019-05-10T01:17:24.175Z,100072.16
2019-05-10T01:19:56.119Z,100077.98
2019-05-10T01:22:27.360Z,100089.20
2019-05-10T01:24:58.812Z,100091.67
2019-05-10T01:27:29.971Z,100095.61
2019-05-10T01:30:01.734Z,100082.08
2019-05-10T01:32:33.427Z,100087.72
2019-05-10T01:35:06.346Z,100091.72
2019-05-10T01:37:37.534Z,100092.14
2019-05-10T01:40:08.787Z,100090.44
2019-05-10T01:42:40.252Z,100093.33
2019-05-10T01:45:12.413Z,100097.67
2019-05-10T01:47:43.752Z,100098.78
2019-05-10T01:50:15.006Z,100105.55
2019-05-10T01:52:46.612Z,100109.05
2019-05-10T01:55:18.277Z,100115.53
2019-05-10T01:57:49.888Z,100114.35
2019-05-10T02:00:21.364Z,100111.51
2019-05-10T02:02:55.626Z,100120.63
2019-05-10T02:05:27.650Z,100123.55
2019-05-10T02:07:59.191Z,100119.83
2019-05-10T02:10:30.643Z,100123.09
2019-05-10T02:13:02.313Z,100111.32
2019-05-10T02:15:33.686Z,100105.94
2019-05-10T02:18:05.727Z,100120.39
2019-05-10T02:20:37.494Z,100121.41
2019-05-10T02:23:09.150Z,100120.73
2019-05-10T02:25:40.504Z,100128.52
2019-05-10T02:28:11.945Z,100129.73
2019-05-10T02:30:43.821Z,100138.63
2019-05-10T02:33:15.576Z,100144.84
2019-05-10T02:35:47.551Z,100148.08
2019-05-10T02:38:19.603Z,100147.95
2019-05-10T02:40:51.588Z,100155.45
2019-05-10T02:43:23.325Z,100158.90
2019-05-10T02:45:55.227Z,100163.00
2019-05-10T02:48:26.908Z,100163.58
2019-05-10T02:50:59.066Z,100167.20
2019-05-10T02:53:30.705Z,100164.02
2019-05-10T02:56:03.891Z,100163.95
2019-05-10T02:58:35.450Z,100163.22
2019-05-10T03:01:06.927Z,100166.70
2019-05-10T03:03:38.499Z,100172.74
2019-05-10T03:06:10.280Z,100164.41
2019-05-10T03:08:52.632Z,100162.16
2019-05-10T03:11:24.255Z,100163.86
2019-05-10T03:13:55.868Z,100172.70
2019-05-10T03:16:27.822Z,100178.85
2019-05-10T03:18:59.708Z,100186.91
2019-05-10T03:21:31.262Z,100185.77
2019-05-10T03:24:04.434Z,100184.79
2019-05-10T03:26:50.473Z,100194.72
2019-05-10T03:29:09.397Z,100189.89
2019-05-10T03:31:40.965Z,100193.67
2019-05-10T03:34:12.351Z,100189.78
2019-05-10T03:36:43.786Z,100192.07
2019-05-10T03:39:15.665Z,100191.50
2019-05-10T03:41:47.073Z,100200.23
2019-05-10T03:44:18.701Z,100194.36
2019-05-10T03:46:50.445Z,100190.13
2019-05-10T03:49:21.765Z,100187.44
2019-05-10T03:51:53.289Z,100187.55
2019-05-10T03:54:25.803Z,100195.98
2019-05-10T03:57:12.358Z,100192.04
2019-05-10T03:59:30.733Z,100199.65
2019-05-10T04:02:02.346Z,100194.00
2019-05-10T04:04:34.160Z,100188.88
2019-05-10T04:07:05.722Z,100190.48
2019-05-10T04:09:36.971Z,100182.32
2019-05-10T04:12:10.172Z,100189.97
2019-05-10T04:14:41.687Z,100188.89
2019-05-10T04:17:13.637Z,100183.16
2019-05-10T04:19:45.043Z,100187.55
2019-05-10T04:22:16.740Z,100184.56
2019-05-10T04:24:49.238Z,100191.83
2019-05-10T04:27:31.542Z,100189.39
2019-05-10T04:29:54.448Z,100190.28
2019-05-10T04:32:26.305Z,100177.98
2019-05-10T04:34:57.967Z,100177.98
2019-05-10T04:37:29.583Z,100195.25
2019-05-10T04:40:01.286Z,100200.60
2019-05-10T04:42:32.542Z,100192.73
2019-05-10T04:45:04.496Z,100200.98
2019-05-10T04:47:35.828Z,100200.98
2019-05-10T04:50:08.254Z,100201.67
2019-05-10T04:52:39.884Z,100202.55
2019-05-10T04:55:12.104Z,100200.91
2019-05-10T04:57:50.297Z,100196.47
2019-05-10T05:00:16.804Z,100212.30
2019-05-10T05:02:48.276Z,100212.30
2019-05-10T05:05:19.709Z,100199.49
2019-05-10T05:07:51.159Z,100209.61
2019-05-10T05:10:23.222Z,100211.87
2019-05-10T05:12:54.775Z,100217.23
2019-05-10T05:15:26.039Z,100217.23
2019-05-10T05:17:57.388Z,100218.58
2019-05-10T05:20:28.862Z,100212.82
2019-05-10T05:23:00.498Z,100223.92
2019-05-10T05:25:35.158Z,100230.80
2019-05-10T05:28:08.085Z,100224.68
2019-05-10T05:30:38.814Z,100227.61
2019-05-10T05:33:10.484Z,100227.61
2019-05-10T05:35:42.063Z,100224.12
2019-05-10T05:38:14.137Z,100224.12
2019-05-10T05:40:47.022Z,100230.08
2019-05-10T05:43:18.360Z,100230.08
2019-05-10T05:45:50.145Z,100230.47
2019-05-10T05:48:23.122Z,100227.04
2019-05-10T05:50:54.559Z,100211.45
2019-05-10T05:53:26.213Z,100200.84
2019-05-10T05:55:57.229Z,100198.50
2019-05-10T05:58:28.912Z,100199.95
2019-05-10T06:01:00.464Z,100195.42
2019-05-10T06:03:31.716Z,100190.67
2019-05-10T06:06:15.312Z,100185.13
2019-05-10T06:08:36.777Z,100179.97
2019-05-10T06:11:09.298Z,100183.65
2019-05-10T06:13:40.702Z,100186.66
2019-05-10T06:16:14.500Z,100193.41
2019-05-10T06:18:47.424Z,100201.39
2019-05-10T06:21:24.521Z,100201.73
2019-05-10T06:23:51.110Z,100205.29
2019-05-10T06:26:28.358Z,100192.30
2019-05-10T06:28:59.801Z,100189.69
2019-05-10T06:31:28.537Z,100188.84
2019-05-10T06:33:59.894Z,100191.45
2019-05-10T06:36:31.927Z,100192.77
2019-05-10T06:39:04.040Z,100189.65
2019-05-10T06:41:35.264Z,100191.12
2019-05-10T06:44:07.768Z,100191.65
2019-05-10T06:46:39.223Z,100194.53
2019-05-10T06:49:12.205Z,100195.80
2019-05-10T06:51:49.018Z,100198.84
2019-05-10T06:54:17.294Z,100188.31
2019-05-10T06:56:48.892Z,100182.47
2019-05-10T06:59:25.017Z,100178.39
2019-05-10T07:01:54.760Z,100187.20
2019-05-10T07:04:27.217Z,100186.50
2019-05-10T07:07:00.873Z,100201.35
2019-05-10T07:10:00.538Z,100200.11
2019-05-10T07:12:09.402Z,100202.75
2019-05-10T07:14:45.608Z,100200.34
2019-05-10T07:17:12.850Z,100195.98
2019-05-10T07:19:53.423Z,100203.61
2019-05-10T07:22:21.642Z,100184.48
2019-05-10T07:24:57.187Z,100186.67
2019-05-10T07:27:26.285Z,100194.83
2019-05-10T07:29:57.927Z,100192.95
2019-05-10T07:32:29.736Z,100205.63
2019-05-10T07:35:02.293Z,100194.69
2019-05-10T07:37:33.728Z,100194.69
2019-05-10T07:40:07.932Z,100197.11
2019-05-10T07:42:45.169Z,100194.88
2019-05-10T07:45:12.886Z,100195.03
2019-05-10T07:47:44.548Z,100191.16
2019-05-10T07:50:16.066Z,100194.91
2019-05-10T07:52:48.061Z,100203.34
2019-05-10T07:55:28.072Z,100203.19
2019-05-10T07:57:53.192Z,100193.30
2019-05-10T08:00:25.573Z,100190.67
2019-05-10T08:03:07.560Z,100197.59
2019-05-10T08:05:30.133Z,100189.48
2019-05-10T08:08:01.624Z,100188.12
2019-05-10T08:10:33.529Z,100191.17
2019-05-10T08:13:05.125Z,100191.65
2019-05-10T08:15:38.336Z,100187.92
2019-05-10T08:18:09.959Z,100191.98
2019-05-10T08:20:50.426Z,100193.91
2019-05-10T08:23:17.934Z,100188.59
2019-05-10T08:25:47.808Z,100188.02
2019-05-10T08:28:19.191Z,100188.89
2019-05-10T08:30:57.788Z,100190.44
2019-05-10T08:33:23.991Z,100178.36
2019-05-10T08:36:00.773Z,100180.38
2019-05-10T08:38:28.534Z,100183.05
2019-05-10T08:41:02.518Z,100186.47
2019-05-10T08:43:38.890Z,100180.55
2019-05-10T08:46:06.479Z,100182.27
2019-05-10T08:48:43.360Z,100185.94
2019-05-10T08:51:12.515Z,100185.09
2019-05-10T08:53:47.181Z,100181.26
2019-05-10T08:56:21.732Z,100192.04
2019-05-10T08:58:49.798Z,100191.16
2019-05-10T09:01:29.471Z,100184.86
2019-05-10T09:04:00.698Z,100179.15
2019-05-10T09:06:28.453Z,100172.28
2019-05-10T09:09:03.171Z,100174.75
2019-05-10T09:11:33.216Z,100171.25
2019-05-10T09:14:05.179Z,100170.53
2019-05-10T09:16:43.515Z,100179.66
2019-05-10T09:19:09.515Z,100178.34
2019-05-10T09:21:49.309Z,100187.64
2019-05-10T09:24:13.856Z,100184.30
2019-05-10T09:26:46.834Z,100177.94
2019-05-10T09:29:18.772Z,100170.99
2019-05-10T09:31:53.182Z,100168.07
2019-05-10T09:34:26.089Z,100165.34
2019-05-10T09:36:57.691Z,100163.02
2019-05-10T09:39:29.140Z,100161.93
2019-05-10T09:42:07.662Z,100168.68
2019-05-10T09:44:33.687Z,100163.23
2019-05-10T09:47:05.257Z,100157.08
2019-05-10T09:49:36.701Z,100154.27
2019-05-10T09:52:12.573Z,100149.59
2019-05-10T09:54:41.147Z,100157.75
2019-05-10T09:57:12.876Z,100153.97
2019-05-10T09:59:44.362Z,100150.00
2019-05-10T10:02:18.666Z,100144.64
2019-05-10T10:04:49.476Z,100153.42
2019-05-10T10:07:24.204Z,100141.10
2019-05-10T10:09:53.967Z,100139.05
2019-05-10T10:12:25.308Z,100141.05
2019-05-10T10:14:56.759Z,100137.09
2019-05-10T10:17:30.738Z,100136.52
2019-05-10T10:20:01.095Z,100135.91
2019-05-10T10:22:33.343Z,100137.98
2019-05-10T10:25:07.395Z,100121.61
2019-05-10T10:27:39.632Z,100117.20
2019-05-10T10:30:17.836Z,100124.30
2019-05-10T10:32:44.605Z,100121.09
2019-05-10T10:35:20.954Z,100130.39
2019-05-10T10:37:48.964Z,100122.25
2019-05-10T10:40:21.491Z,100113.78
2019-05-10T10:42:53.987Z,100119.64
2019-05-10T10:45:27.591Z,100116.34
2019-05-10T10:48:02.371Z,100113.62
2019-05-10T10:50:31.525Z,100115.38
2019-05-10T10:53:02.743Z,100118.50
2019-05-10T10:55:37.084Z,100124.55
2019-05-10T10:58:08.023Z,100121.26
2019-05-10T11:00:39.466Z,100126.24
2019-05-10T11:03:10.728Z,100122.27
2019-05-10T11:05:41.981Z,100122.03
2019-05-10T11:08:13.428Z,100116.13
2019-05-10T11:10:44.780Z,100113.94
2019-05-10T11:13:23.692Z,100118.18
2019-05-10T11:15:51.535Z,100123.43
2019-05-10T11:18:21.904Z,100109.94
2019-05-10T11:20:54.189Z,100105.82
2019-05-10T11:23:34.044Z,100103.55
2019-05-10T11:25:58.113Z,100101.54
2019-05-10T11:28:38.483Z,100087.80
2019-05-10T11:31:03.162Z,100092.09
2019-05-10T11:33:34.168Z,100091.67
2019-05-10T11:36:08.869Z,100096.38
2019-05-10T11:38:42.012Z,100092.03
2019-05-10T11:41:20.694Z,100094.08
2019-05-10T11:43:46.365Z,100097.11
2019-05-10T11:46:17.410Z,100097.44
2019-05-10T11:48:50.370Z,100090.66
2019-05-10T11:51:21.755Z,100091.69
2019-05-10T11:53:55.351Z,100091.30
2019-05-10T11:56:27.722Z,100093.25
2019-05-10T11:59:02.697Z,100086.87
2019-05-10T12:01:34.014Z,100086.84
2019-05-10T12:04:13.098Z,100086.99
2019-05-10T12:06:49.483Z,100086.26
2019-05-10T12:09:13.953Z,100083.44
2019-05-10T12:11:51.616Z,100078.73
2019-05-10T12:14:18.043Z,100078.33
2019-05-10T12:16:54.236Z,100075.31
2019-05-10T12:19:23.242Z,100060.45
2019-05-10T12:21:55.987Z,100067.98
2019-05-10T12:24:45.230Z,100065.23
2019-05-10T12:27:25.321Z,100068.44
2019-05-10T12:29:34.335Z,100055.13
2019-05-10T12:32:05.585Z,100062.91
2019-05-10T12:34:36.741Z,100063.73
2019-05-10T12:37:08.617Z,100051.66
2019-05-10T12:39:39.839Z,100044.77
2019-05-10T12:42:14.411Z,100043.65
2019-05-10T12:44:47.918Z,100038.05
2019-05-10T12:47:17.624Z,100041.17
2019-05-10T12:49:54.003Z,100041.13
2019-05-10T12:52:27.732Z,100036.45
2019-05-10T12:54:54.706Z,100037.06
2019-05-10T12:57:26.664Z,100033.61
2019-05-10T12:59:57.808Z,100031.78
2019-05-10T13:02:29.267Z,100037.45
2019-05-10T13:05:00.517Z,100032.92
2019-05-10T13:07:36.444Z,100024.68
2019-05-10T13:10:09.323Z,100026.22
2019-05-10T13:12:44.345Z,100024.99
2019-05-10T13:15:14.105Z,100025.84
2019-05-10T13:17:50.421Z,100031.82
2019-05-10T13:20:18.657Z,100027.58
2019-05-10T13:22:51.025Z,100021.34
2019-05-10T13:25:22.291Z,100018.73
2019-05-10T13:27:53.819Z,100013.32
2019-05-10T13:30:28.099Z,100017.29
2019-05-10T13:32:58.964Z,100014.10
2019-05-10T13:35:31.661Z,100009.77
2019-05-10T13:38:06.230Z,100011.82
2019-05-10T13:40:38.897Z,100008.66
2019-05-10T13:43:09.089Z,100017.66
2019-05-10T13:45:41.458Z,100015.91
2019-05-10T13:48:13.983Z,100015.90
2019-05-10T13:50:45.525Z,100016.77
2019-05-10T13:53:20.937Z,100015.75
2019-05-10T13:55:49.632Z,100005.16
2019-05-10T13:58:20.892Z,100007.76
2019-05-10T14:00:52.640Z,100001.50
2019-05-10T14:03:23.823Z,100007.63
2019-05-10T14:05:55.440Z,100011.16
2019-05-10T14:08:26.989Z,100012.33
2019-05-10T14:11:01.387Z,100018.44
2019-05-10T14:13:35.851Z,100014.35
2019-05-10T14:16:05.128Z,100010.03
2019-05-10T14:18:37.203Z,100021.62
2019-05-10T14:21:08.751Z,100009.14
2019-05-10T14:23:40.611Z,100003.85
2019-05-10T14:26:15.865Z,100010.78
2019-05-10T14:28:47.403Z,100003.56
2019-05-10T14:31:18.149Z,100017.02
2019-05-10T14:34:14.020Z,100009.48
2019-05-10T14:36:23.783Z,100018.70
2019-05-10T14:38:56.465Z,100013.94
2019-05-10T14:41:28.157Z,100014.14
2019-05-10T14:43:59.800Z,100018.05
2019-05-10T14:46:31.474Z,100003.63
2019-05-10T14:49:09.835Z,100015.42
2019-05-10T14:51:49.550Z,100021.07
2019-05-10T14:54:09.767Z,100016.36
2019-05-10T14:56:41.390Z,100017.78
2019-05-10T14:59:12.905Z,100020.91
2019-05-10T15:01:45.455Z,100014.36
2019-05-10T15:04:20.194Z,100007.84
2019-05-10T15:06:50.335Z,100012.89
2019-05-10T15:09:24.188Z,100019.06
2019-05-10T15:11:54.693Z,100009.86
2019-05-10T15:14:26.019Z,100016.55
2019-05-10T15:16:57.266Z,100022.13
2019-05-10T15:19:31.335Z,100019.28
2019-05-10T15:22:01.726Z,100020.63
2019-05-10T15:24:32.955Z,100017.59
2019-05-10T15:27:04.343Z,100014.95
2019-05-10T15:29:35.875Z,100016.18
2019-05-10T15:32:07.309Z,100007.57
2019-05-10T15:34:38.667Z,100007.40
2019-05-10T15:37:10.778Z,100004.63
2019-05-10T15:39:42.077Z,100008.22
2019-05-10T15:42:13.423Z,100004.02
2019-05-10T15:44:44.917Z,100002.02
2019-05-10T15:47:20.632Z,100005.28
2019-05-10T15:49:54.749Z,100006.77
2019-05-10T15:52:24.110Z,100002.33
2019-05-10T15:54:55.602Z,100000.58
2019-05-10T15:57:26.950Z,100000.47
2019-05-10T15:59:59.210Z,99997.08
2019-05-10T16:02:30.384Z,99987.38
2019-05-10T16:05:01.838Z,99985.48
2019-05-10T16:07:33.083Z,99985.98
2019-05-10T16:10:05.377Z,99988.08
2019-05-10T16:12:37.920Z,99988.54
2019-05-10T16:15:13.792Z,99989.04
2019-05-10T16:17:42.368Z,99987.26
2019-05-10T16:20:14.735Z,99988.47
2019-05-10T16:22:46.116Z,99987.86
2019-05-10T16:25:17.231Z,99983.56
2019-05-10T16:27:48.377Z,99986.48
2019-05-10T16:30:20.308Z,99987.61
2019-05-10T16:32:51.688Z,99975.78
2019-05-10T16:35:22.943Z,99988.81
2019-05-10T16:37:54.388Z,99984.31
2019-05-10T16:40:25.877Z,99985.77
2019-05-10T16:42:56.992Z,99988.19
2019-05-10T16:45:28.303Z,99985.48
2019-05-10T16:47:59.694Z,99990.14
2019-05-10T16:50:33.685Z,99987.88
2019-05-10T16:53:05.627Z,99981.31
2019-05-10T16:55:40.669Z,99987.27
2019-05-10T16:58:15.352Z,99984.76
2019-05-10T17:00:46.381Z,99988.55
2019-05-10T17:03:18.660Z,99993.19
2019-05-10T17:05:53.600Z,99989.16
2019-05-10T17:08:22.593Z,99991.28
2019-05-10T17:10:54.146Z,99993.44
2019-05-10T17:13:25.398Z,100001.00
2019-05-10T17:15:56.659Z,99988.39
2019-05-10T17:18:28.100Z,99993.09
2019-05-10T17:20:59.647Z,100001.66
2019-05-10T17:23:31.406Z,100005.28
2019-05-10T17:26:02.972Z,100009.08
2019-05-10T17:28:35.299Z,100012.86
2019-05-10T17:31:08.166Z,100012.86
2019-05-10T17:33:42.798Z,100008.98
2019-05-10T17:36:14.540Z,100015.27
2019-05-10T17:38:47.211Z,100015.27
2019-05-10T17:41:24.850Z,100002.55
2019-05-10T17:43:52.874Z,100002.55
2019-05-10T17:46:24.535Z,100008.20
2019-05-10T17:48:56.072Z,100011.50
2019-05-10T17:51:27.712Z,100011.84
2019-05-10T17:54:01.330Z,100004.38
2019-05-10T17:56:38.721Z,100007.25
2019-05-10T17:59:11.869Z,100013.72
2019-05-10T18:01:40.143Z,100011.44
2019-05-10T18:04:11.760Z,100012.45
2019-05-10T18:06:43.253Z,100008.27
2019-05-10T18:09:14.683Z,100011.25
2019-05-10T18:11:46.222Z,100006.15
2019-05-10T18:14:19.400Z,100009.15
2019-05-10T18:16:50.968Z,100014.82
2019-05-10T18:19:24.703Z,100019.95
2019-05-10T18:22:00.796Z,100017.86
2019-05-10T18:24:30.154Z,100018.08
2019-05-10T18:27:01.797Z,100012.48
2019-05-10T18:29:33.261Z,100016.29
2019-05-10T18:32:04.949Z,100015.31
2019-05-10T18:34:36.594Z,100015.56
2019-05-10T18:37:08.044Z,100011.72
2019-05-10T18:39:39.878Z,100019.78
2019-05-10T18:42:11.437Z,100014.84
2019-05-10T18:44:45.829Z,100013.37
2019-05-10T18:47:16.287Z,100011.52
2019-05-10T18:49:47.978Z,100011.15
2019-05-10T18:52:20.454Z,100011.80
2019-05-10T18:54:52.041Z,100015.28
2019-05-10T18:57:23.954Z,100020.22
2019-05-10T18:59:55.406Z,100016.89
2019-05-10T19:02:28.096Z,100018.44
2019-05-10T19:04:59.917Z,100011.47
2019-05-10T19:07:31.810Z,100015.17
2019-05-10T19:10:05.607Z,100012.66
2019-05-10T19:12:38.063Z,100015.98
2019-05-10T19:15:15.090Z,100016.75
2019-05-10T19:17:45.988Z,100018.86
2019-05-10T19:20:18.511Z,100024.18
2019-05-10T19:22:50.094Z,100025.91
2019-05-10T19:25:21.720Z,100020.42
2019-05-10T19:27:53.473Z,100023.34
2019-05-10T19:30:25.132Z,100024.38
2019-05-10T19:32:58.137Z,100021.61
2019-05-10T19:35:34.852Z,100016.59
2019-05-10T19:38:02.461Z,100022.59
2019-05-10T19:40:34.229Z,100017.88
2019-05-10T19:43:06.592Z,100028.30
2019-05-10T19:45:38.105Z,100028.81
2019-05-10T19:48:09.299Z,100028.25
2019-05-10T19:50:40.957Z,100027.88
2019-05-10T19:53:12.589Z,100027.67
2019-05-10T19:55:43.637Z,100032.61
2019-05-10T19:58:14.900Z,100033.89
2019-05-10T20:00:46.593Z,100031.83
2019-05-10T20:03:18.143Z,100034.02
2019-05-10T20:05:49.662Z,100029.15
2019-05-10T20:08:21.215Z,100030.19
2019-05-10T20:10:52.977Z,100038.94
2019-05-10T20:13:24.449Z,100037.72
2019-05-10T20:15:55.879Z,100045.95
2019-05-10T20:18:27.332Z,100041.69
2019-05-10T20:20:58.792Z,100049.55
2019-05-10T20:23:30.443Z,100041.45
2019-05-10T20:26:02.038Z,100044.22
2019-05-10T20:28:33.354Z,100043.55
2019-05-10T20:31:05.023Z,100048.61
2019-05-10T20:33:36.467Z,100046.08
2019-05-10T20:36:07.818Z,100052.16
2019-05-10T20:38:39.076Z,100051.06
2019-05-10T20:41:10.739Z,100053.91
2019-05-10T20:43:42.486Z,100055.72
2019-05-10T20:46:13.943Z,100066.52
2019-05-10T20:48:45.800Z,100071.50
2019-05-10T20:51:17.053Z,100066.52
2019-05-10T20:53:48.506Z,100067.77
2019-05-10T20:56:19.756Z,100072.16
2019-05-10T20:58:51.208Z,100075.70
2019-05-10T21:01:22.365Z,100073.86
2019-05-10T21:03:53.505Z,100076.02
2019-05-10T21:06:24.858Z,100079.46
2019-05-10T21:08:56.426Z,100085.98
2019-05-10T21:11:28.792Z,100083.22
2019-05-10T21:14:00.256Z,100094.70
2019-05-10T21:16:31.705Z,100095.17
2019-05-10T21:19:03.080Z,100098.81
2019-05-10T21:21:34.303Z,100103.88
2019-05-10T21:24:06.093Z,100112.50
2019-05-10T21:26:37.325Z,100113.42
2019-05-10T21:29:08.990Z,100113.62
2019-05-10T21:31:40.677Z,100115.56
2019-05-10T21:34:12.432Z,100115.91
2019-05-10T21:36:43.975Z,100122.84
2019-05-10T21:39:15.419Z,100124.02
2019-05-10T21:41:46.791Z,100125.17
2019-05-10T21:44:18.146Z,100129.05
2019-05-10T21:46:53.212Z,100127.19
2019-05-10T21:49:22.475Z,100126.91
2019-05-10T21:51:54.133Z,100121.80
2019-05-10T21:54:26.510Z,100121.86
2019-05-10T21:56:58.066Z,100119.09
2019-05-10T21:59:29.420Z,100120.48
2019-05-10T22:02:00.979Z,100118.28
2019-05-10T22:04:32.235Z,100118.59
2019-05-10T22:07:03.689Z,100123.38
2019-05-10T22:09:35.871Z,100123.70
2019-05-10T22:12:09.495Z,100124.56
2019-05-10T22:14:40.821Z,100121.80
2019-05-10T22:17:14.653Z,100120.41
2019-05-10T22:19:46.566Z,100122.45
2019-05-10T22:22:18.351Z,100125.50
2019-05-10T22:24:50.225Z,100137.20
2019-05-10T22:27:21.709Z,100129.72
2019-05-10T22:29:53.150Z,100134.70
2019-05-10T22:32:25.525Z,100131.92
2019-05-10T22:34:57.311Z,100132.95
2019-05-10T22:37:29.563Z,100128.13
2019-05-10T22:40:01.018Z,100131.57
2019-05-10T22:42:35.088Z,100131.57
2019-05-10T22:45:06.797Z,100129.81
2019-05-10T22:47:38.176Z,100134.95
2019-05-10T22:50:09.407Z,100140.20
2019-05-10T22:52:40.755Z,100144.41
2019-05-10T22:55:13.650Z,100141.80
2019-05-10T22:57:45.206Z,100136.25
2019-05-10T23:00:16.776Z,100134.97
2019-05-10T23:02:48.232Z,100136.81
2019-05-10T23:05:19.783Z,100133.67
2019-05-10T23:07:51.143Z,100135.86
2019-05-10T23:10:23.613Z,100138.28
2019-05-10T23:12:56.115Z,100135.52
2019-05-10T23:15:27.682Z,100137.05
2019-05-10T23:17:59.236Z,100135.93
2019-05-10T23:20:31.305Z,100129.61
2019-05-10T23:23:02.878Z,100131.44
2019-05-10T23:25:34.820Z,100128.97
2019-05-10T23:28:06.592Z,100134.19
2019-05-10T23:30:38.471Z,100135.22
2019-05-10T23:33:10.333Z,100134.31
2019-05-10T23:35:42.004Z,100135.45
2019-05-10T23:38:13.434Z,100135.05
2019-05-10T23:40:44.895Z,100132.58
2019-05-10T23:43:17.083Z,100136.03
2019-05-10T23:45:48.688Z,100134.19
2019-05-10T23:48:20.592Z,100135.17
2019-05-10T23:50:52.164Z,100133.12
2019-05-10T23:53:23.616Z,100134.55
2019-05-10T23:55:55.171Z,100137.22
2019-05-10T23:58:27.161Z,100135.95
